Time,TemperatureF,DewpointF,PressureIn,WindDirection,WindDirectionDegrees,WindSpeedMPH,WindSpeedGustMPH,Humidity,HourlyPrecipIn,Conditions,Clouds,dailyrainin,SoftwareType,DateUTC
2013-01-26 00:00:00,12.8,6.0,30.08,NW,315,9.2,11.4,74,0.00,,,0.00,WUHU216HW,2013-01-26 06:00:00,
2013-01-26 00:05:00,12.8,6.0,30.08,NNW,338,6.0,11.4,74,0.00,,,0.00,WUHU216HW,2013-01-26 06:05:00,
2013-01-26 00:10:00,12.6,5.9,30.08,NNW,338,4.0,9.8,74,0.00,,,0.00,WUHU216HW,2013-01-26 06:10:00,
2013-01-26 00:15:00,12.6,5.6,30.08,NW,315,5.4,10.5,73,0.00,,,0.00,WUHU216HW,2013-01-26 06:15:00,
2013-01-26 00:20:00,12.6,5.9,30.08,West,270,2.5,10.5,74,0.00,,,0.00,WUHU216HW,2013-01-26 06:20:00,
2013-01-26 00:25:00,12.6,5.6,30.08,WNW,293,3.8,10.3,73,0.00,,,0.00,WUHU216HW,2013-01-26 06:25:00,
2013-01-26 00:30:00,12.4,5.4,30.09,NNW,338,9.2,11.6,73,0.00,,,0.00,WUHU216HW,2013-01-26 06:30:00,
2013-01-26 00:35:00,12.2,5.2,30.08,NNW,338,7.2,11.6,73,0.00,,,0.00,WUHU216HW,2013-01-26 06:35:00,
2013-01-26 00:40:00,12.2,5.2,30.09,NW,315,8.3,10.3,73,0.00,,,0.00,WUHU216HW,2013-01-26 06:40:00,
2013-01-26 00:45:00,12.2,5.2,30.09,NW,315,5.4,11.4,73,0.00,,,0.00,WUHU216HW,2013-01-26 06:45:00,
2013-01-26 00:50:00,12.1,5.1,30.09,NNW,338,4.0,11.6,73,0.00,,,0.00,WUHU216HW,2013-01-26 06:50:00,
2013-01-26 00:55:00,12.1,5.1,30.09,NNW,338,5.4,11.6,73,0.00,,,0.00,WUHU216HW,2013-01-26 06:55:00,
2013-01-26 01:00:00,11.9,4.9,30.09,WNW,293,6.3,10.5,73,0.00,,,0.00,WUHU216HW,2013-01-26 07:00:00,
2013-01-26 01:05:00,11.9,5.1,30.09,NNW,338,2.5,10.1,74,0.00,,,0.00,WUHU216HW,2013-01-26 07:05:00,
2013-01-26 01:10:00,11.9,5.1,30.09,NW,315,3.4,11.0,74,0.00,,,0.00,WUHU216HW,2013-01-26 07:10:00,
2013-01-26 01:15:00,11.7,5.0,30.09,North,0,6.9,11.0,74,0.00,,,0.00,WUHU216HW,2013-01-26 07:15:00,
2013-01-26 01:20:00,11.5,4.8,30.09,NW,315,4.0,8.5,74,0.00,,,0.00,WUHU216HW,2013-01-26 07:20:00,
2013-01-26 01:25:00,11.5,4.8,30.10,NW,315,6.3,10.5,74,0.00,,,0.00,WUHU216HW,2013-01-26 07:25:00,
2013-01-26 01:30:00,11.3,4.9,30.10,WNW,293,4.3,10.5,75,0.00,,,0.00,WUHU216HW,2013-01-26 07:30:00,
2013-01-26 01:35:00,11.2,4.7,30.10,NNW,338,5.6,9.2,75,0.00,,,0.00,WUHU216HW,2013-01-26 07:35:00,
2013-01-26 01:40:00,11.2,4.7,30.10,NNW,338,4.9,7.8,75,0.00,,,0.00,WUHU216HW,2013-01-26 07:40:00,
2013-01-26 01:45:00,11.0,4.5,30.10,NW,315,7.4,8.5,75,0.00,,,0.00,WUHU216HW,2013-01-26 07:45:00,
2013-01-26 01:50:00,11.0,4.5,30.11,NW,315,5.8,9.4,75,0.00,,,0.00,WUHU216HW,2013-01-26 07:50:00,
2013-01-26 01:55:00,10.8,4.3,30.11,NNW,338,8.5,9.4,75,0.00,,,0.00,WUHU216HW,2013-01-26 07:55:00,
2013-01-26 02:00:00,10.8,4.6,30.11,North,0,4.0,8.5,76,0.00,,,0.00,WUHU216HW,2013-01-26 08:00:00,
2013-01-26 02:05:00,10.6,4.4,30.11,North,0,4.0,8.5,76,0.00,,,0.00,WUHU216HW,2013-01-26 08:05:00,
2013-01-26 02:10:00,10.4,4.2,30.11,NW,315,2.7,9.8,76,0.00,,,0.00,WUHU216HW,2013-01-26 08:10:00,
2013-01-26 02:15:00,10.4,4.2,30.12,NNW,338,6.7,9.8,76,0.00,,,0.00,WUHU216HW,2013-01-26 08:15:00,
2013-01-26 02:20:00,10.4,4.5,30.12,North,0,4.3,8.5,77,0.00,,,0.00,WUHU216HW,2013-01-26 08:20:00,
2013-01-26 02:25:00,10.4,4.5,30.12,NE,45,3.4,7.2,77,0.00,,,0.00,WUHU216HW,2013-01-26 08:25:00,
2013-01-26 02:30:00,10.3,4.4,30.12,NNW,338,1.3,6.5,77,0.00,,,0.00,WUHU216HW,2013-01-26 08:30:00,
2013-01-26 02:35:00,10.3,4.4,30.12,NNW,338,2.5,8.3,77,0.00,,,0.00,WUHU216HW,2013-01-26 08:35:00,
2013-01-26 02:40:00,10.1,4.2,30.12,NW,315,2.5,8.3,77,0.00,,,0.00,WUHU216HW,2013-01-26 08:40:00,
2013-01-26 02:45:00,10.1,4.2,30.12,NW,315,4.0,6.9,77,0.00,,,0.00,WUHU216HW,2013-01-26 08:45:00,
2013-01-26 02:50:00,9.9,4.1,30.13,NW,315,2.7,6.9,77,0.00,,,0.00,WUHU216HW,2013-01-26 08:50:00,
2013-01-26 02:55:00,9.9,4.1,30.13,NW,315,4.0,6.0,77,0.00,,,0.00,WUHU216HW,2013-01-26 08:55:00,
2013-01-26 03:00:00,9.7,3.9,30.13,NW,315,2.7,5.6,77,0.00,,,0.00,WUHU216HW,2013-01-26 09:00:00,
2013-01-26 03:05:00,9.9,4.1,30.13,NNW,338,4.0,5.6,77,0.00,,,0.00,WUHU216HW,2013-01-26 09:05:00,
2013-01-26 03:10:00,9.9,4.1,30.13,NNW,338,3.4,6.3,77,0.00,,,0.00,WUHU216HW,2013-01-26 09:10:00,
2013-01-26 03:15:00,9.7,3.9,30.13,NNW,338,5.6,6.3,77,0.00,,,0.00,WUHU216HW,2013-01-26 09:15:00,
2013-01-26 03:20:00,9.7,3.9,30.13,North,0,1.6,6.9,77,0.00,,,0.00,WUHU216HW,2013-01-26 09:20:00,
2013-01-26 03:25:00,9.7,4.1,30.14,NNW,338,2.5,8.1,78,0.00,,,0.00,WUHU216HW,2013-01-26 09:25:00,
2013-01-26 03:30:00,9.7,3.9,30.14,NNW,338,4.0,8.1,77,0.00,,,0.00,WUHU216HW,2013-01-26 09:30:00,
2013-01-26 03:35:00,9.7,3.9,30.14,NNW,338,3.4,6.7,77,0.00,,,0.00,WUHU216HW,2013-01-26 09:35:00,
2013-01-26 03:40:00,9.7,3.9,30.14,NW,315,3.4,6.7,77,0.00,,,0.00,WUHU216HW,2013-01-26 09:40:00,
2013-01-26 03:45:00,9.5,3.7,30.14,NNE,23,3.1,6.3,77,0.00,,,0.00,WUHU216HW,2013-01-26 09:45:00,
2013-01-26 03:50:00,9.5,4.1,30.14,NW,315,4.0,8.7,78,0.00,,,0.00,WUHU216HW,2013-01-26 09:50:00,
2013-01-26 03:55:00,9.5,4.1,30.14,NNW,338,5.6,8.7,78,0.00,,,0.00,WUHU216HW,2013-01-26 09:55:00,
2013-01-26 04:00:00,9.4,3.9,30.14,North,0,4.0,7.4,78,0.00,,,0.00,WUHU216HW,2013-01-26 10:00:00,
2013-01-26 04:05:00,9.4,3.9,30.14,North,0,6.9,7.4,78,0.00,,,0.00,WUHU216HW,2013-01-26 10:05:00,
2013-01-26 04:10:00,9.4,3.9,30.14,NNW,338,4.7,6.9,78,0.00,,,0.00,WUHU216HW,2013-01-26 10:10:00,
2013-01-26 04:15:00,9.2,3.7,30.14,North,0,4.7,9.2,78,0.00,,,0.00,WUHU216HW,2013-01-26 10:15:00,
2013-01-26 04:20:00,9.2,3.7,30.14,NW,315,3.6,10.5,78,0.00,,,0.00,WUHU216HW,2013-01-26 10:20:00,
2013-01-26 04:25:00,9.0,3.5,30.14,NNW,338,3.8,10.5,78,0.00,,,0.00,WUHU216HW,2013-01-26 10:25:00,
2013-01-26 04:30:00,9.0,3.5,30.14,NNW,338,4.9,8.1,78,0.00,,,0.00,WUHU216HW,2013-01-26 10:30:00,
2013-01-26 04:35:00,9.0,3.8,30.14,WNW,293,1.8,7.6,79,0.00,,,0.00,WUHU216HW,2013-01-26 10:35:00,
2013-01-26 04:40:00,8.8,3.7,30.14,NNW,338,2.5,6.5,79,0.00,,,0.00,WUHU216HW,2013-01-26 10:40:00,
2013-01-26 04:45:00,8.6,3.3,30.14,NNE,23,4.5,5.4,78,0.00,,,0.00,WUHU216HW,2013-01-26 10:45:00,
2013-01-26 04:50:00,8.6,3.5,30.14,NNW,338,1.8,5.6,79,0.00,,,0.00,WUHU216HW,2013-01-26 10:50:00,
2013-01-26 04:55:00,8.5,3.1,30.14,North,0,4.0,5.6,78,0.00,,,0.00,WUHU216HW,2013-01-26 10:55:00,
2013-01-26 05:00:00,8.5,3.1,30.14,North,0,4.5,6.7,78,0.00,,,0.00,WUHU216HW,2013-01-26 11:00:00,
2013-01-26 05:05:00,8.3,2.9,30.14,NNE,23,4.3,6.7,78,0.00,,,0.00,WUHU216HW,2013-01-26 11:05:00,
2013-01-26 05:10:00,8.3,2.9,30.14,NW,315,3.6,6.0,78,0.00,,,0.00,WUHU216HW,2013-01-26 11:10:00,
2013-01-26 05:15:00,8.3,2.9,30.15,NW,315,1.6,6.7,78,0.00,,,0.00,WUHU216HW,2013-01-26 11:15:00,
2013-01-26 05:20:00,8.3,2.9,30.15,NW,315,0.9,6.7,78,0.00,,,0.00,WUHU216HW,2013-01-26 11:20:00,
2013-01-26 05:25:00,8.1,2.7,30.15,NNW,338,2.7,5.1,78,0.00,,,0.00,WUHU216HW,2013-01-26 11:25:00,
2013-01-26 05:30:00,7.9,2.5,30.15,WNW,293,2.7,4.0,78,0.00,,,0.00,WUHU216HW,2013-01-26 11:30:00,
2013-01-26 05:35:00,7.9,2.8,30.16,North,0,1.8,4.0,79,0.00,,,0.00,WUHU216HW,2013-01-26 11:35:00,
2013-01-26 05:40:00,7.9,2.5,30.16,NNW,338,0.2,4.7,78,0.00,,,0.00,WUHU216HW,2013-01-26 11:40:00,
2013-01-26 05:45:00,7.9,2.8,30.16,North,0,0.7,4.7,79,0.00,,,0.00,WUHU216HW,2013-01-26 11:45:00,
2013-01-26 05:50:00,7.7,2.4,30.17,WNW,293,2.0,3.8,78,0.00,,,0.00,WUHU216HW,2013-01-26 11:50:00,
2013-01-26 05:55:00,7.6,2.4,30.17,West,270,1.8,4.7,79,0.00,,,0.00,WUHU216HW,2013-01-26 11:55:00,
2013-01-26 06:00:00,7.6,2.2,30.17,NNW,338,2.2,4.7,78,0.00,,,0.00,WUHU216HW,2013-01-26 12:00:00,
2013-01-26 06:05:00,7.6,2.4,30.17,NW,315,2.5,3.4,79,0.00,,,0.00,WUHU216HW,2013-01-26 12:05:00,
2013-01-26 06:10:00,7.4,2.3,30.18,NW,315,3.4,4.5,79,0.00,,,0.00,WUHU216HW,2013-01-26 12:10:00,
2013-01-26 06:15:00,7.4,2.5,30.18,West,270,2.2,4.7,80,0.00,,,0.00,WUHU216HW,2013-01-26 12:15:00,
2013-01-26 06:20:00,7.4,2.3,30.18,West,270,2.9,4.7,79,0.00,,,0.00,WUHU216HW,2013-01-26 12:20:00,
2013-01-26 06:25:00,7.4,2.3,30.18,WSW,248,3.4,4.7,79,0.00,,,0.00,WUHU216HW,2013-01-26 12:25:00,
2013-01-26 06:30:00,7.0,1.6,30.19,WNW,293,1.6,4.7,78,0.00,,,0.00,WUHU216HW,2013-01-26 12:30:00,
2013-01-26 06:35:00,6.8,1.7,30.19,WNW,293,2.7,3.4,79,0.00,,,0.00,WUHU216HW,2013-01-26 12:35:00,
2013-01-26 06:40:00,6.8,1.7,30.19,WSW,248,3.6,4.5,79,0.00,,,0.00,WUHU216HW,2013-01-26 12:40:00,
2013-01-26 06:45:00,6.7,1.5,30.19,West,270,3.6,4.5,79,0.00,,,0.00,WUHU216HW,2013-01-26 12:45:00,
2013-01-26 06:50:00,6.5,1.6,30.19,WNW,293,2.0,4.7,80,0.00,,,0.00,WUHU216HW,2013-01-26 12:50:00,
2013-01-26 06:55:00,6.7,1.8,30.19,WNW,293,4.0,4.9,80,0.00,,,0.00,WUHU216HW,2013-01-26 12:55:00,
2013-01-26 07:00:00,6.8,2.0,30.19,West,270,3.6,4.9,80,0.00,,,0.00,WUHU216HW,2013-01-26 13:00:00,
2013-01-26 07:05:00,6.7,1.8,30.19,WNW,293,4.0,4.9,80,0.00,,,0.00,WUHU216HW,2013-01-26 13:05:00,
2013-01-26 07:10:00,6.7,1.8,30.20,NW,315,4.0,4.9,80,0.00,,,0.00,WUHU216HW,2013-01-26 13:10:00,
2013-01-26 07:15:00,6.7,1.8,30.20,WNW,293,4.3,5.1,80,0.00,,,0.00,WUHU216HW,2013-01-26 13:15:00,
2013-01-26 07:20:00,6.7,1.8,30.20,NW,315,4.3,5.8,80,0.00,,,0.00,WUHU216HW,2013-01-26 13:20:00,
2013-01-26 07:25:00,6.8,2.0,30.20,WNW,293,4.0,6.3,80,0.00,,,0.00,WUHU216HW,2013-01-26 13:25:00,
2013-01-26 07:30:00,6.7,1.8,30.21,WNW,293,5.4,6.3,80,0.00,,,0.00,WUHU216HW,2013-01-26 13:30:00,
2013-01-26 07:35:00,6.8,2.0,30.21,West,270,6.3,6.5,80,0.00,,,0.00,WUHU216HW,2013-01-26 13:35:00,
2013-01-26 07:39:00,6.8,2.0,30.21,WNW,293,4.5,6.7,80,0.00,,,0.00,WUHU216HW,2013-01-26 13:39:00,
2013-01-26 07:44:00,7.0,2.2,30.21,West,270,4.3,6.7,80,0.00,,,0.00,WUHU216HW,2013-01-26 13:44:00,
2013-01-26 07:49:00,7.4,2.5,30.22,WNW,293,4.7,5.6,80,0.00,,,0.00,WUHU216HW,2013-01-26 13:49:00,
2013-01-26 07:54:00,7.6,2.4,30.22,NNW,338,4.5,6.9,79,0.00,,,0.00,WUHU216HW,2013-01-26 13:54:00,
2013-01-26 07:59:00,7.6,2.4,30.22,WNW,293,5.4,6.9,79,0.00,,,0.00,WUHU216HW,2013-01-26 13:59:00,
2013-01-26 08:04:00,7.9,2.8,30.22,NW,315,4.7,6.3,79,0.00,,,0.00,WUHU216HW,2013-01-26 14:04:00,
2013-01-26 08:09:00,8.1,2.7,30.22,NW,315,4.0,6.7,78,0.00,,,0.00,WUHU216HW,2013-01-26 14:09:00,
2013-01-26 08:14:00,8.3,3.2,30.22,NW,315,5.1,6.7,79,0.00,,,0.00,WUHU216HW,2013-01-26 14:14:00,
2013-01-26 08:19:00,8.3,3.2,30.22,WNW,293,2.9,6.7,79,0.00,,,0.00,WUHU216HW,2013-01-26 14:19:00,
2013-01-26 08:24:00,8.5,3.1,30.22,NW,315,4.5,7.4,78,0.00,,,0.00,WUHU216HW,2013-01-26 14:24:00,
2013-01-26 08:29:00,8.8,3.3,30.22,NNW,338,3.8,7.4,78,0.00,,,0.00,WUHU216HW,2013-01-26 14:29:00,
2013-01-26 08:34:00,9.0,3.2,30.23,West,270,1.8,6.3,77,0.00,,,0.00,WUHU216HW,2013-01-26 14:34:00,
2013-01-26 08:39:00,9.4,3.6,30.23,NW,315,2.5,7.2,77,0.00,,,0.00,WUHU216HW,2013-01-26 14:39:00,
2013-01-26 08:44:00,9.7,3.9,30.23,West,270,4.7,7.2,77,0.00,,,0.00,WUHU216HW,2013-01-26 14:44:00,
2013-01-26 08:49:00,10.1,3.6,30.23,NW,315,4.9,6.3,75,0.00,,,0.00,WUHU216HW,2013-01-26 14:49:00,
2013-01-26 08:54:00,10.4,4.0,30.24,WSW,248,4.0,6.3,75,0.00,,,0.00,WUHU216HW,2013-01-26 14:54:00,
2013-01-26 08:59:00,11.0,4.5,30.23,NNE,23,3.4,6.7,75,0.00,,,0.00,WUHU216HW,2013-01-26 14:59:00,
2013-01-26 09:04:00,11.3,4.6,30.24,West,270,2.9,6.7,74,0.00,,,0.00,WUHU216HW,2013-01-26 15:04:00,
2013-01-26 09:09:00,11.9,4.9,30.24,West,270,5.1,6.9,73,0.00,,,0.00,WUHU216HW,2013-01-26 15:09:00,
2013-01-26 09:14:00,11.9,4.9,30.24,NW,315,2.2,6.9,73,0.00,,,0.00,WUHU216HW,2013-01-26 15:14:00,
2013-01-26 09:19:00,11.9,4.9,30.24,WNW,293,4.0,6.3,73,0.00,,,0.00,WUHU216HW,2013-01-26 15:19:00,
2013-01-26 09:24:00,12.2,4.9,30.24,NW,315,3.1,5.6,72,0.00,,,0.00,WUHU216HW,2013-01-26 15:24:00,
2013-01-26 09:29:00,12.4,4.8,30.24,WNW,293,3.4,5.6,71,0.00,,,0.00,WUHU216HW,2013-01-26 15:29:00,
2013-01-26 09:34:00,12.6,5.0,30.24,WNW,293,2.9,5.6,71,0.00,,,0.00,WUHU216HW,2013-01-26 15:34:00,
2013-01-26 09:39:00,12.8,5.1,30.25,West,270,4.5,5.6,71,0.00,,,0.00,WUHU216HW,2013-01-26 15:39:00,
2013-01-26 09:44:00,13.3,5.4,30.25,West,270,3.4,5.4,70,0.00,,,0.00,WUHU216HW,2013-01-26 15:44:00,
2013-01-26 09:49:00,13.7,5.4,30.25,SW,225,4.3,5.1,69,0.00,,,0.00,WUHU216HW,2013-01-26 15:49:00,
2013-01-26 09:54:00,13.9,5.6,30.25,NE,45,1.1,6.5,69,0.00,,,0.00,WUHU216HW,2013-01-26 15:54:00,
2013-01-26 09:59:00,14.4,5.8,30.25,North,0,1.8,6.5,68,0.00,,,0.00,WUHU216HW,2013-01-26 15:59:00,
2013-01-26 10:04:00,14.4,5.4,30.25,NW,315,3.4,4.9,67,0.00,,,0.00,WUHU216HW,2013-01-26 16:04:00,
2013-01-26 10:09:00,14.6,6.0,30.25,WNW,293,2.9,5.6,68,0.00,,,0.00,WUHU216HW,2013-01-26 16:09:00,
2013-01-26 10:14:00,14.9,6.0,30.25,NW,315,4.5,5.6,67,0.00,,,0.00,WUHU216HW,2013-01-26 16:14:00,
2013-01-26 10:19:00,15.3,6.2,30.25,North,0,0.4,5.4,67,0.00,,,0.00,WUHU216HW,2013-01-26 16:19:00,
2013-01-26 10:24:00,15.5,6.0,30.26,North,0,1.1,5.4,66,0.00,,,0.00,WUHU216HW,2013-01-26 16:24:00,
2013-01-26 10:29:00,15.7,6.2,30.26,WNW,293,0.2,4.0,66,0.00,,,0.00,WUHU216HW,2013-01-26 16:29:00,
2013-01-26 10:34:00,15.8,6.0,30.26,WNW,293,1.3,6.9,65,0.00,,,0.00,WUHU216HW,2013-01-26 16:34:00,
2013-01-26 10:39:00,16.4,7.3,30.26,WSW,248,3.4,6.9,67,0.00,,,0.00,WUHU216HW,2013-01-26 16:39:00,
2013-01-26 10:44:00,17.1,7.3,30.26,NNW,338,2.2,4.0,65,0.00,,,0.00,WUHU216HW,2013-01-26 16:44:00,
2013-01-26 10:49:00,17.3,7.1,30.25,NW,315,1.1,4.0,64,0.00,,,0.00,WUHU216HW,2013-01-26 16:49:00,
2013-01-26 10:54:00,17.5,7.3,30.26,West,270,1.3,3.4,64,0.00,,,0.00,WUHU216HW,2013-01-26 16:54:00,
2013-01-26 10:59:00,18.0,8.2,30.26,WSW,248,2.7,4.5,65,0.00,,,0.00,WUHU216HW,2013-01-26 16:59:00,
2013-01-26 11:04:00,18.2,7.3,30.26,NNE,23,2.0,4.5,62,0.00,,,0.00,WUHU216HW,2013-01-26 17:04:00,
2013-01-26 11:09:00,18.2,6.9,30.26,NNW,338,2.7,6.0,61,0.00,,,0.00,WUHU216HW,2013-01-26 17:09:00,
2013-01-26 11:14:00,18.4,7.1,30.26,SW,225,2.7,6.0,61,0.00,,,0.00,WUHU216HW,2013-01-26 17:14:00,
2013-01-26 11:19:00,18.5,7.9,30.26,WSW,248,1.3,4.5,63,0.00,,,0.00,WUHU216HW,2013-01-26 17:19:00,
2013-01-26 11:24:00,18.7,7.5,30.25,WNW,293,1.8,4.3,61,0.00,,,0.00,WUHU216HW,2013-01-26 17:24:00,
2013-01-26 11:29:00,18.7,8.5,30.25,WSW,248,0.4,4.3,64,0.00,,,0.00,WUHU216HW,2013-01-26 17:29:00,
2013-01-26 11:34:00,19.4,8.5,30.24,SW,225,0.4,2.7,62,0.00,,,0.00,WUHU216HW,2013-01-26 17:34:00,
2013-01-26 11:39:00,19.8,8.5,30.24,West,270,1.1,4.3,61,0.00,,,0.00,WUHU216HW,2013-01-26 17:39:00,
2013-01-26 11:44:00,19.8,9.1,30.25,WNW,293,1.3,5.1,63,0.00,,,0.00,WUHU216HW,2013-01-26 17:44:00,
2013-01-26 11:49:00,19.8,8.1,30.25,NW,315,2.5,5.1,60,0.00,,,0.00,WUHU216HW,2013-01-26 17:49:00,
2013-01-26 11:54:00,19.6,8.3,30.25,NW,315,0.7,5.4,61,0.00,,,0.00,WUHU216HW,2013-01-26 17:54:00,
2013-01-26 11:59:00,19.6,8.7,30.25,SW,225,5.4,5.4,62,0.00,,,0.00,WUHU216HW,2013-01-26 17:59:00,
2013-01-26 12:04:00,20.0,9.0,30.25,SW,225,1.6,5.4,62,0.00,,,0.00,WUHU216HW,2013-01-26 18:04:00,
2013-01-26 12:09:00,20.3,9.4,30.25,SW,225,3.1,7.2,62,0.00,,,0.00,WUHU216HW,2013-01-26 18:09:00,
2013-01-26 12:14:00,20.3,9.0,30.25,WSW,248,2.5,7.2,61,0.00,,,0.00,WUHU216HW,2013-01-26 18:14:00,
2013-01-26 12:19:00,20.3,9.4,30.24,WSW,248,3.4,4.7,62,0.00,,,0.00,WUHU216HW,2013-01-26 18:19:00,
2013-01-26 12:24:00,20.9,9.2,30.24,NW,315,2.0,3.6,60,0.00,,,0.00,WUHU216HW,2013-01-26 18:24:00,
2013-01-26 12:29:00,20.9,9.2,30.24,NNW,338,1.1,4.7,60,0.00,,,0.00,WUHU216HW,2013-01-26 18:29:00,
2013-01-26 12:34:00,21.2,9.1,30.23,North,0,0.7,4.7,59,0.00,,,0.00,WUHU216HW,2013-01-26 18:34:00,
2013-01-26 12:39:00,21.2,9.5,30.23,North,0,2.7,4.7,60,0.00,,,0.00,WUHU216HW,2013-01-26 18:39:00,
2013-01-26 12:44:00,21.6,9.5,30.23,SE,135,1.3,4.7,59,0.00,,,0.00,WUHU216HW,2013-01-26 18:44:00,
2013-01-26 12:49:00,22.0,10.2,30.23,North,0,0.0,3.1,60,0.00,,,0.00,WUHU216HW,2013-01-26 18:49:00,
2013-01-26 12:54:00,22.5,10.7,30.23,WSW,248,1.1,2.2,60,0.00,,,0.00,WUHU216HW,2013-01-26 18:54:00,
2013-01-26 12:59:00,23.0,10.8,30.23,WSW,248,4.0,4.0,59,0.00,,,0.00,WUHU216HW,2013-01-26 18:59:00,
2013-01-26 13:04:00,23.0,10.8,30.23,SW,225,1.8,4.0,59,0.00,,,0.00,WUHU216HW,2013-01-26 19:04:00,
2013-01-26 13:09:00,22.9,10.6,30.23,SSW,203,1.1,4.0,59,0.00,,,0.00,WUHU216HW,2013-01-26 19:09:00,
2013-01-26 13:14:00,23.4,11.2,30.23,SE,135,1.8,2.5,59,0.00,,,0.00,WUHU216HW,2013-01-26 19:14:00,
2013-01-26 13:19:00,23.8,11.5,30.23,WNW,293,1.3,2.5,59,0.00,,,0.00,WUHU216HW,2013-01-26 19:19:00,
2013-01-26 13:24:00,23.6,11.4,30.23,SE,135,2.5,3.8,59,0.00,,,0.00,WUHU216HW,2013-01-26 19:24:00,
2013-01-26 13:29:00,23.6,11.4,30.22,NNW,338,1.1,3.8,59,0.00,,,0.00,WUHU216HW,2013-01-26 19:29:00,
2013-01-26 13:34:00,23.8,10.7,30.23,SSE,158,1.8,4.5,57,0.00,,,0.00,WUHU216HW,2013-01-26 19:34:00,
2013-01-26 13:39:00,24.1,11.8,30.23,NNE,23,0.9,4.5,59,0.00,,,0.00,WUHU216HW,2013-01-26 19:39:00,
2013-01-26 13:44:00,24.1,11.4,30.23,SSE,158,4.0,4.3,58,0.00,,,0.00,WUHU216HW,2013-01-26 19:44:00,
2013-01-26 13:49:00,24.1,11.0,30.23,SE,135,1.6,4.9,57,0.00,,,0.00,WUHU216HW,2013-01-26 19:49:00,
2013-01-26 13:54:00,24.1,11.8,30.23,West,270,2.5,4.9,59,0.00,,,0.00,WUHU216HW,2013-01-26 19:54:00,
2013-01-26 13:59:00,24.3,12.0,30.23,SSW,203,3.4,5.6,59,0.00,,,0.00,WUHU216HW,2013-01-26 19:59:00,
2013-01-26 14:04:00,24.5,11.3,30.22,WSW,248,1.8,5.6,57,0.00,,,0.00,WUHU216HW,2013-01-26 20:04:00,
2013-01-26 14:09:00,24.5,10.2,30.22,SSW,203,0.4,3.4,54,0.00,,,0.00,WUHU216HW,2013-01-26 20:09:00,
2013-01-26 14:14:00,24.3,10.8,30.22,South,180,1.8,4.5,56,0.00,,,0.00,WUHU216HW,2013-01-26 20:14:00,
2013-01-26 14:19:00,24.7,11.2,30.22,South,180,0.9,4.5,56,0.00,,,0.00,WUHU216HW,2013-01-26 20:19:00,
2013-01-26 14:24:00,24.8,11.4,30.23,SW,225,1.3,4.3,56,0.00,,,0.00,WUHU216HW,2013-01-26 20:24:00,
2013-01-26 14:29:00,24.8,12.2,30.22,SE,135,1.8,4.3,58,0.00,,,0.00,WUHU216HW,2013-01-26 20:29:00,
2013-01-26 14:34:00,24.7,11.2,30.21,SSW,203,3.1,4.0,56,0.00,,,0.00,WUHU216HW,2013-01-26 20:34:00,
2013-01-26 14:39:00,24.7,10.4,30.22,West,270,1.1,4.0,54,0.00,,,0.00,WUHU216HW,2013-01-26 20:39:00,
2013-01-26 14:44:00,24.7,11.2,30.23,SSW,203,2.0,3.6,56,0.00,,,0.00,WUHU216HW,2013-01-26 20:44:00,
2013-01-26 14:49:00,24.8,11.7,30.23,WSW,248,2.9,4.0,57,0.00,,,0.00,WUHU216HW,2013-01-26 20:49:00,
2013-01-26 14:54:00,25.0,12.3,30.23,WSW,248,2.9,4.0,58,0.00,,,0.00,WUHU216HW,2013-01-26 20:54:00,
2013-01-26 14:59:00,24.8,10.9,30.23,WSW,248,2.2,6.7,55,0.00,,,0.00,WUHU216HW,2013-01-26 20:59:00,
2013-01-26 15:04:00,24.5,10.2,30.23,North,0,0.2,6.7,54,0.00,,,0.00,WUHU216HW,2013-01-26 21:04:00,
2013-01-26 15:09:00,24.1,10.6,30.23,SSW,203,1.8,5.8,56,0.00,,,0.00,WUHU216HW,2013-01-26 21:09:00,
2013-01-26 15:14:00,24.1,11.0,30.23,WSW,248,1.8,2.2,57,0.00,,,0.00,WUHU216HW,2013-01-26 21:14:00,
2013-01-26 15:19:00,23.8,10.7,30.24,WSW,248,3.4,4.0,57,0.00,,,0.00,WUHU216HW,2013-01-26 21:19:00,
2013-01-26 15:24:00,23.6,10.1,30.23,NNW,338,1.1,4.0,56,0.00,,,0.00,WUHU216HW,2013-01-26 21:24:00,
2013-01-26 15:29:00,23.4,10.4,30.23,West,270,0.4,2.7,57,0.00,,,0.00,WUHU216HW,2013-01-26 21:29:00,
2013-01-26 15:34:00,23.4,10.4,30.23,WSW,248,0.2,1.8,57,0.00,,,0.00,WUHU216HW,2013-01-26 21:34:00,
2013-01-26 15:39:00,23.8,9.9,30.22,South,180,0.7,1.8,55,0.00,,,0.00,WUHU216HW,2013-01-26 21:39:00,
2013-01-26 15:44:00,24.3,11.2,30.22,ESE,113,2.5,2.5,57,0.00,,,0.00,WUHU216HW,2013-01-26 21:44:00,
2013-01-26 15:49:00,24.7,11.5,30.22,West,270,0.4,2.5,57,0.00,,,0.00,WUHU216HW,2013-01-26 21:49:00,
2013-01-26 15:54:00,24.3,9.5,30.22,NNE,23,2.5,3.4,53,0.00,,,0.00,WUHU216HW,2013-01-26 21:54:00,
2013-01-26 15:59:00,23.8,9.9,30.22,NNE,23,1.3,3.8,55,0.00,,,0.00,WUHU216HW,2013-01-26 21:59:00,
2013-01-26 16:04:00,23.4,9.9,30.22,SE,135,4.7,4.7,56,0.00,,,0.00,WUHU216HW,2013-01-26 22:04:00,
2013-01-26 16:09:00,23.2,9.7,30.22,SE,135,3.4,5.1,56,0.00,,,0.00,WUHU216HW,2013-01-26 22:09:00,
2013-01-26 16:14:00,22.9,9.5,30.22,ESE,113,2.9,5.1,56,0.00,,,0.00,WUHU216HW,2013-01-26 22:14:00,
2013-01-26 16:19:00,22.9,9.5,30.22,SE,135,4.7,5.1,56,0.00,,,0.00,WUHU216HW,2013-01-26 22:19:00,
2013-01-26 16:24:00,22.5,9.5,30.22,SSE,158,3.8,6.0,57,0.00,,,0.00,WUHU216HW,2013-01-26 22:24:00,
2013-01-26 16:29:00,22.3,8.5,30.22,SE,135,4.0,6.0,55,0.00,,,0.00,WUHU216HW,2013-01-26 22:29:00,
2013-01-26 16:34:00,22.1,9.1,30.21,SE,135,5.4,5.4,57,0.00,,,0.00,WUHU216HW,2013-01-26 22:34:00,
2013-01-26 16:39:00,21.8,8.8,30.22,South,180,1.8,5.4,57,0.00,,,0.00,WUHU216HW,2013-01-26 22:39:00,
2013-01-26 16:44:00,21.6,9.0,30.21,ESE,113,4.7,5.4,58,0.00,,,0.00,WUHU216HW,2013-01-26 22:44:00,
2013-01-26 16:49:00,21.4,8.9,30.21,SE,135,2.9,4.9,58,0.00,,,0.00,WUHU216HW,2013-01-26 22:49:00,
2013-01-26 16:54:00,21.2,9.1,30.21,SSE,158,4.5,4.7,59,0.00,,,0.00,WUHU216HW,2013-01-26 22:54:00,
2013-01-26 16:59:00,21.1,9.4,30.21,SSE,158,2.9,4.7,60,0.00,,,0.00,WUHU216HW,2013-01-26 22:59:00,
2013-01-26 17:04:00,20.9,9.2,30.22,SSW,203,1.1,4.5,60,0.00,,,0.00,WUHU216HW,2013-01-26 23:04:00,
2013-01-26 17:09:00,20.9,9.2,30.21,SSE,158,4.7,4.7,60,0.00,,,0.00,WUHU216HW,2013-01-26 23:09:00,
2013-01-26 17:14:00,21.1,9.4,30.21,SSE,158,2.9,6.3,60,0.00,,,0.00,WUHU216HW,2013-01-26 23:14:00,
2013-01-26 17:19:00,21.2,9.5,30.21,SSE,158,2.7,6.3,60,0.00,,,0.00,WUHU216HW,2013-01-26 23:19:00,
2013-01-26 17:24:00,21.2,9.9,30.21,SSE,158,4.0,4.5,61,0.00,,,0.00,WUHU216HW,2013-01-26 23:24:00,
2013-01-26 17:29:00,21.4,10.1,30.20,SSE,158,2.9,4.9,61,0.00,,,0.00,WUHU216HW,2013-01-26 23:29:00,
2013-01-26 17:33:00,21.4,10.1,30.20,South,180,1.8,5.1,61,0.00,,,0.00,WUHU216HW,2013-01-26 23:33:00,
2013-01-26 17:39:00,21.6,10.2,30.20,South,180,1.1,5.1,61,0.00,,,0.00,WUHU216HW,2013-01-26 23:39:00,
2013-01-26 17:43:00,21.6,10.2,30.20,SSE,158,3.4,3.6,61,0.00,,,0.00,WUHU216HW,2013-01-26 23:43:00,
2013-01-26 17:48:00,21.6,10.2,30.20,SE,135,5.4,5.4,61,0.00,,,0.00,WUHU216HW,2013-01-26 23:48:00,
2013-01-26 17:53:00,21.6,10.2,30.20,SW,225,3.4,6.0,61,0.00,,,0.00,WUHU216HW,2013-01-26 23:53:00,
2013-01-26 17:58:00,21.6,10.2,30.21,South,180,2.5,6.0,61,0.00,,,0.00,WUHU216HW,2013-01-26 23:58:00,
2013-01-26 18:03:00,21.8,10.4,30.20,SSW,203,2.5,4.3,61,0.00,,,0.00,WUHU216HW,2013-01-27 00:03:00,
2013-01-26 18:08:00,21.8,10.4,30.20,ESE,113,4.3,4.3,61,0.00,,,0.00,WUHU216HW,2013-01-27 00:08:00,
2013-01-26 18:13:00,21.8,10.4,30.20,SSE,158,3.6,6.3,61,0.00,,,0.00,WUHU216HW,2013-01-27 00:13:00,
2013-01-26 18:18:00,21.8,10.4,30.20,SE,135,4.3,6.3,61,0.00,,,0.00,WUHU216HW,2013-01-27 00:18:00,
2013-01-26 18:23:00,21.8,10.4,30.20,SE,135,4.9,6.3,61,0.00,,,0.00,WUHU216HW,2013-01-27 00:23:00,
2013-01-26 18:28:00,21.8,10.7,30.20,ESE,113,4.0,6.3,62,0.00,,,0.00,WUHU216HW,2013-01-27 00:28:00,
2013-01-26 18:33:00,21.8,10.7,30.21,SE,135,6.5,6.5,62,0.00,,,0.00,WUHU216HW,2013-01-27 00:33:00,
2013-01-26 18:38:00,21.8,10.7,30.21,SE,135,2.9,7.2,62,0.00,,,0.00,WUHU216HW,2013-01-27 00:38:00,
2013-01-26 18:43:00,21.8,10.7,30.21,SSE,158,4.5,7.2,62,0.00,,,0.00,WUHU216HW,2013-01-27 00:43:00,
2013-01-26 18:48:00,21.8,10.7,30.21,SE,135,3.1,5.4,62,0.00,,,0.00,WUHU216HW,2013-01-27 00:48:00,
2013-01-26 18:53:00,21.8,10.7,30.20,SE,135,5.4,5.8,62,0.00,,,0.00,WUHU216HW,2013-01-27 00:53:00,
2013-01-26 18:58:00,21.8,10.7,30.21,SE,135,3.4,6.0,62,0.00,,,0.00,WUHU216HW,2013-01-27 00:58:00,
2013-01-26 19:03:00,22.0,11.3,30.21,SE,135,3.4,6.0,63,0.00,,,0.00,WUHU216HW,2013-01-27 01:03:00,
2013-01-26 19:08:00,22.0,11.3,30.21,SE,135,3.4,5.4,63,0.00,,,0.00,WUHU216HW,2013-01-27 01:08:00,
2013-01-26 19:13:00,22.0,11.3,30.22,SSE,158,4.0,5.4,63,0.00,,,0.00,WUHU216HW,2013-01-27 01:13:00,
2013-01-26 19:18:00,22.0,11.3,30.22,SE,135,4.3,5.1,63,0.00,,,0.00,WUHU216HW,2013-01-27 01:18:00,
2013-01-26 19:23:00,22.0,11.3,30.22,SE,135,5.1,5.1,63,0.00,,,0.00,WUHU216HW,2013-01-27 01:23:00,
2013-01-26 19:28:00,22.1,11.4,30.22,SE,135,4.0,5.1,63,0.00,,,0.00,WUHU216HW,2013-01-27 01:28:00,
2013-01-26 19:33:00,22.1,11.4,30.22,South,180,4.3,5.4,63,0.00,,,0.00,WUHU216HW,2013-01-27 01:33:00,
2013-01-26 19:38:00,22.1,11.8,30.21,SSE,158,4.0,6.0,64,0.00,,,0.00,WUHU216HW,2013-01-27 01:38:00,
2013-01-26 19:43:00,22.3,11.9,30.22,SSE,158,5.6,6.3,64,0.00,,,0.00,WUHU216HW,2013-01-27 01:43:00,
2013-01-26 19:48:00,22.3,11.9,30.22,SSE,158,5.4,6.3,64,0.00,,,0.00,WUHU216HW,2013-01-27 01:48:00,
2013-01-26 19:53:00,22.3,11.9,30.22,SE,135,4.5,6.7,64,0.00,,,0.00,WUHU216HW,2013-01-27 01:53:00,
2013-01-26 19:58:00,22.3,11.9,30.21,SE,135,5.4,6.9,64,0.00,,,0.00,WUHU216HW,2013-01-27 01:58:00,
2013-01-26 20:03:00,22.3,11.9,30.21,SE,135,6.9,6.9,64,0.00,,,0.00,WUHU216HW,2013-01-27 02:03:00,
2013-01-26 20:08:00,22.3,11.9,30.21,ESE,113,6.3,7.6,64,0.00,,,0.00,WUHU216HW,2013-01-27 02:08:00,
2013-01-26 20:13:00,22.5,12.1,30.20,SE,135,4.9,8.5,64,0.00,,,0.00,WUHU216HW,2013-01-27 02:13:00,
2013-01-26 20:18:00,22.5,12.1,30.20,SE,135,6.5,8.5,64,0.00,,,0.00,WUHU216HW,2013-01-27 02:18:00,
2013-01-26 20:23:00,22.5,12.4,30.20,SE,135,6.7,8.5,65,0.00,,,0.00,WUHU216HW,2013-01-27 02:23:00,
2013-01-26 20:28:00,22.7,12.6,30.20,SE,135,6.9,7.6,65,0.00,,,0.00,WUHU216HW,2013-01-27 02:28:00,
2013-01-26 20:33:00,22.7,12.6,30.20,SE,135,7.2,9.2,65,0.00,,,0.00,WUHU216HW,2013-01-27 02:33:00,
2013-01-26 20:38:00,22.7,12.6,30.20,SSW,203,2.9,9.2,65,0.00,,,0.00,WUHU216HW,2013-01-27 02:38:00,
2013-01-26 20:43:00,22.7,12.6,30.20,SE,135,8.5,9.2,65,0.00,,,0.00,WUHU216HW,2013-01-27 02:43:00,
2013-01-26 20:48:00,22.7,12.6,30.21,SE,135,7.6,8.5,65,0.00,,,0.00,WUHU216HW,2013-01-27 02:48:00,
2013-01-26 20:53:00,22.7,12.6,30.21,South,180,6.0,8.7,65,0.00,,,0.00,WUHU216HW,2013-01-27 02:53:00,
2013-01-26 20:58:00,22.7,12.6,30.20,SE,135,6.5,8.7,65,0.00,,,0.00,WUHU216HW,2013-01-27 02:58:00,
2013-01-26 21:03:00,22.9,13.1,30.20,SSE,158,4.7,8.7,66,0.00,,,0.00,WUHU216HW,2013-01-27 03:03:00,
2013-01-26 21:08:00,22.9,13.1,30.20,SE,135,5.1,8.5,66,0.00,,,0.00,WUHU216HW,2013-01-27 03:08:00,
2013-01-26 21:13:00,22.9,13.1,30.20,SE,135,4.7,8.5,66,0.00,,,0.00,WUHU216HW,2013-01-27 03:13:00,
2013-01-26 21:18:00,22.9,13.1,30.20,SE,135,4.7,7.4,66,0.00,,,0.00,WUHU216HW,2013-01-27 03:18:00,
2013-01-26 21:23:00,23.0,13.3,30.21,SE,135,3.8,6.9,66,0.00,,,0.00,WUHU216HW,2013-01-27 03:23:00,
2013-01-26 21:28:00,23.0,13.3,30.21,West,270,6.3,6.3,66,0.00,,,0.00,WUHU216HW,2013-01-27 03:28:00,
2013-01-26 21:33:00,23.0,13.3,30.21,SSW,203,3.8,6.5,66,0.00,,,0.00,WUHU216HW,2013-01-27 03:33:00,
2013-01-26 21:38:00,23.0,13.3,30.22,SSW,203,5.1,7.2,66,0.00,,,0.00,WUHU216HW,2013-01-27 03:38:00,
2013-01-26 21:43:00,23.0,13.3,30.22,SSW,203,2.2,7.2,66,0.00,,,0.00,WUHU216HW,2013-01-27 03:43:00,
2013-01-26 21:48:00,23.0,13.3,30.21,South,180,5.6,6.3,66,0.00,,,0.00,WUHU216HW,2013-01-27 03:48:00,
2013-01-26 21:53:00,23.0,13.3,30.21,SSE,158,4.3,6.3,66,0.00,,,0.00,WUHU216HW,2013-01-27 03:53:00,
2013-01-26 21:58:00,23.0,13.3,30.21,SSW,203,3.1,6.5,66,0.00,,,0.00,WUHU216HW,2013-01-27 03:58:00,
2013-01-26 22:03:00,23.0,13.3,30.21,SE,135,5.4,6.5,66,0.00,,,0.00,WUHU216HW,2013-01-27 04:03:00,
2013-01-26 22:08:00,23.0,13.3,30.21,SSW,203,3.4,5.6,66,0.00,,,0.00,WUHU216HW,2013-01-27 04:08:00,
2013-01-26 22:13:00,22.9,13.1,30.20,SSE,158,4.0,7.4,66,0.00,,,0.00,WUHU216HW,2013-01-27 04:13:00,
2013-01-26 22:18:00,22.9,13.1,30.20,ESE,113,6.9,9.2,66,0.00,,,0.00,WUHU216HW,2013-01-27 04:18:00,
2013-01-26 22:23:00,22.9,13.1,30.19,SSE,158,5.8,9.2,66,0.00,,,0.00,WUHU216HW,2013-01-27 04:23:00,
2013-01-26 22:28:00,22.7,13.0,30.19,SSE,158,5.1,9.2,66,0.00,,,0.00,WUHU216HW,2013-01-27 04:28:00,
2013-01-26 22:33:00,22.7,13.0,30.19,WSW,248,3.8,10.1,66,0.00,,,0.00,WUHU216HW,2013-01-27 04:33:00,
2013-01-26 22:38:00,22.9,13.5,30.19,SE,135,4.5,10.1,67,0.00,,,0.00,WUHU216HW,2013-01-27 04:38:00,
2013-01-26 22:43:00,22.9,13.5,30.20,ESE,113,2.9,5.8,67,0.00,,,0.00,WUHU216HW,2013-01-27 04:43:00,
2013-01-26 22:48:00,22.9,13.5,30.20,SSE,158,3.6,5.8,67,0.00,,,0.00,WUHU216HW,2013-01-27 04:48:00,
2013-01-26 22:53:00,22.9,13.5,30.20,SSE,158,5.8,6.0,67,0.00,,,0.00,WUHU216HW,2013-01-27 04:53:00,
2013-01-26 22:58:00,22.9,13.5,30.20,East,90,3.8,6.9,67,0.00,,,0.00,WUHU216HW,2013-01-27 04:58:00,
2013-01-26 23:00:00,22.9,13.5,30.20,ESE,113,2.7,7.6,67,0.00,,,0.00,WUHU216HW,2013-01-27 05:00:00,
2013-01-26 23:01:00,22.9,13.5,30.20,SE,135,3.6,7.6,67,0.00,,,0.00,WUHU216HW,2013-01-27 05:01:00,
2013-01-26 23:02:00,22.9,13.5,30.19,East,90,5.8,7.6,67,0.00,,,0.00,WUHU216HW,2013-01-27 05:02:00,
2013-01-26 23:07:00,22.7,13.3,30.20,SE,135,7.4,9.2,67,0.00,,,0.00,WUHU216HW,2013-01-27 05:07:00,
2013-01-26 23:12:00,22.7,13.3,30.19,SE,135,5.6,9.2,67,0.00,,,0.00,WUHU216HW,2013-01-27 05:12:00,
2013-01-26 23:17:00,22.7,13.3,30.19,SE,135,7.2,11.0,67,0.00,,,0.00,WUHU216HW,2013-01-27 05:17:00,
2013-01-26 23:22:00,22.7,13.3,30.19,ESE,113,6.7,11.0,67,0.00,,,0.00,WUHU216HW,2013-01-27 05:22:00,
2013-01-26 23:27:00,22.5,13.1,30.19,SSW,203,3.4,8.9,67,0.00,,,0.00,WUHU216HW,2013-01-27 05:27:00,
2013-01-26 23:32:00,22.5,13.1,30.19,South,180,5.8,8.9,67,0.00,,,0.00,WUHU216HW,2013-01-27 05:32:00,
2013-01-26 23:37:00,22.5,13.1,30.18,SE,135,7.4,7.4,67,0.00,,,0.00,WUHU216HW,2013-01-27 05:37:00,
2013-01-26 23:42:00,22.5,13.1,30.19,South,180,4.5,7.4,67,0.00,,,0.00,WUHU216HW,2013-01-27 05:42:00,
2013-01-26 23:47:00,22.5,13.1,30.19,SSW,203,4.0,7.4,67,0.00,,,0.00,WUHU216HW,2013-01-27 05:47:00,
2013-01-26 23:52:00,22.3,13.3,30.18,SSW,203,5.8,5.8,68,0.00,,,0.00,WUHU216HW,2013-01-27 05:52:00,
2013-01-26 23:57:00,22.3,13.3,30.18,SW,225,4.3,6.0,68,0.00,,,0.00,WUHU216HW,2013-01-27 05:57:00,